アスタナ の空港の天気 - METARとTAF

アスタナ国際空港 ( UACC / TSE ) - カザフスタン アスタナ
飛行場実況気象(Metar)
観測時間06/29 07:30 QYZT (06/29 01:30 UTC)
風向・風速南南西 3m/s
視程10km以上
天気現象
なし
気温20℃
湿度60%
気圧1013hPa
METARUACC 290130Z 21003MPS CAVOK 20/12 Q1013 R22/0///70 NOSIG RMK QFE728/0971
過去の天気等 Google飛行場航空写真 Wunderground天気予報

過去48時間のMETAR

飛行場予報(TAF)
発表時間: 6/29 05:00 QYZT (6/28 23:00 UTC)
予報対象時間: 29日6時 QYZT ~ 30日6時 QYZT
風向・風速南西 6m/s
視程10km以上
全天の4割程度の積乱雲 雲底高度 1,220m
全天の8割程度の雲 雲底高度 3,050m
29日11時 QYZT ~ 29日13時 QYZT に徐々に
風向・風速西 6m/s
29日13時 QYZT ~ 29日24時 QYZT に一時的に
風向・風速不定 16m/s
視程3,000m
天気現象雷雨 スコール
全天の8割程度の積乱雲 雲底高度 610m
30日0時 QYZT ~ 30日6時 QYZT に一時的に
風向・風速不定 15m/s
視程5,000m
天気現象弱い雷雨 スコール
全天の8割程度の積乱雲 雲底高度 910m
TAF UACC 282300Z 2900/2924 22006MPS 9999 SCT040CB BKN100 TX30/2910Z TN17/2923Z
BECMG 2905/2907 28006MPS
TEMPO 2907/2918 VRB16MPS 3000 TSRA SQ BKN020CB
TEMPO 2918/2924 VRB15MPS 5000 -TSRA SQ BKN030CB